sensor_id;sensor_type;location;lat;lon;timestamp;P1;durP1;ratioP1;P2;durP2;ratioP2
60225;SDS011;46090;48.436;11.410;2022-08-20T00:01:39;16.50;;;10.70;;
60225;SDS011;46090;48.436;11.410;2022-08-20T00:04:14;21.70;;;10.57;;
60225;SDS011;46090;48.436;11.410;2022-08-20T00:06:44;17.48;;;11.38;;
60225;SDS011;46090;48.436;11.410;2022-08-20T00:09:13;17.95;;;11.43;;
60225;SDS011;46090;48.436;11.410;2022-08-20T00:11:50;18.15;;;11.43;;
60225;SDS011;46090;48.436;11.410;2022-08-20T00:14:20;16.98;;;11.90;;
60225;SDS011;46090;48.436;11.410;2022-08-20T00:16:53;18.33;;;11.73;;
60225;SDS011;46090;48.436;11.410;2022-08-20T00:19:27;19.30;;;11.87;;
60225;SDS011;46090;48.436;11.410;2022-08-20T00:21:57;19.13;;;12.18;;
60225;SDS011;46090;48.436;11.410;2022-08-20T00:24:25;20.95;;;12.60;;
60225;SDS011;46090;48.436;11.410;2022-08-20T00:26:53;21.00;;;13.00;;
60225;SDS011;46090;48.436;11.410;2022-08-20T00:29:24;19.73;;;12.57;;
60225;SDS011;46090;48.436;11.410;2022-08-20T00:32:00;21.35;;;13.45;;
60225;SDS011;46090;48.436;11.410;2022-08-20T00:34:29;23.85;;;13.05;;
60225;SDS011;46090;48.436;11.410;2022-08-20T00:36:59;21.13;;;14.02;;
60225;SDS011;46090;48.436;11.410;2022-08-20T00:39:28;20.02;;;13.45;;
60225;SDS011;46090;48.436;11.410;2022-08-20T00:41:58;21.40;;;13.52;;
60225;SDS011;46090;48.436;11.410;2022-08-20T00:44:26;20.17;;;12.93;;
60225;SDS011;46090;48.436;11.410;2022-08-20T00:46:58;23.08;;;13.85;;
60225;SDS011;46090;48.436;11.410;2022-08-20T00:49:29;20.90;;;13.80;;
60225;SDS011;46090;48.436;11.410;2022-08-20T00:52:01;20.33;;;13.43;;
60225;SDS011;46090;48.436;11.410;2022-08-20T00:54:42;19.77;;;12.82;;
60225;SDS011;46090;48.436;11.410;2022-08-20T00:59:51;19.77;;;13.35;;
60225;SDS011;46090;48.436;11.410;2022-08-20T01:02:18;20.83;;;13.57;;
60225;SDS011;46090;48.436;11.410;2022-08-20T01:04:49;21.35;;;13.30;;
60225;SDS011;46090;48.436;11.410;2022-08-20T01:07:22;21.17;;;13.63;;
60225;SDS011;46090;48.436;11.410;2022-08-20T01:09:59;23.92;;;13.80;;
60225;SDS011;46090;48.436;11.410;2022-08-20T01:12:27;19.70;;;12.93;;
60225;SDS011;46090;48.436;11.410;2022-08-20T01:14:56;20.02;;;13.20;;
60225;SDS011;46090;48.436;11.410;2022-08-20T01:17:25;18.80;;;12.80;;
60225;SDS011;46090;48.436;11.410;2022-08-20T01:22:38;20.10;;;13.27;;
60225;SDS011;46090;48.436;11.410;2022-08-20T01:25:37;22.15;;;12.70;;
60225;SDS011;46090;48.436;11.410;2022-08-20T01:28:06;23.88;;;13.35;;
60225;SDS011;46090;48.436;11.410;2022-08-20T01:30:35;20.98;;;13.77;;
60225;SDS011;46090;48.436;11.410;2022-08-20T01:33:03;21.80;;;13.02;;
60225;SDS011;46090;48.436;11.410;2022-08-20T01:35:33;21.83;;;13.65;;
60225;SDS011;46090;48.436;11.410;2022-08-20T01:38:03;20.50;;;13.55;;
60225;SDS011;46090;48.436;11.410;2022-08-20T01:43:18;19.45;;;12.82;;
60225;SDS011;46090;48.436;11.410;2022-08-20T01:45:49;19.50;;;12.85;;
60225;SDS011;46090;48.436;11.410;2022-08-20T01:48:17;24.92;;;13.18;;
60225;SDS011;46090;48.436;11.410;2022-08-20T01:50:47;21.52;;;13.88;;
60225;SDS011;46090;48.436;11.410;2022-08-20T01:53:24;21.65;;;14.10;;
60225;SDS011;46090;48.436;11.410;2022-08-20T01:55:58;21.17;;;13.50;;
60225;SDS011;46090;48.436;11.410;2022-08-20T01:58:31;20.13;;;12.85;;
60225;SDS011;46090;48.436;11.410;2022-08-20T02:00:59;21.70;;;14.07;;
60225;SDS011;46090;48.436;11.410;2022-08-20T02:03:29;22.08;;;13.55;;
60225;SDS011;46090;48.436;11.410;2022-08-20T02:06:10;22.60;;;13.95;;
60225;SDS011;46090;48.436;11.410;2022-08-20T02:08:39;20.45;;;12.30;;
60225;SDS011;46090;48.436;11.410;2022-08-20T02:11:07;23.63;;;13.23;;
60225;SDS011;46090;48.436;11.410;2022-08-20T02:13:36;23.00;;;12.93;;
60225;SDS011;46090;48.436;11.410;2022-08-20T02:16:04;21.17;;;12.15;;
60225;SDS011;46090;48.436;11.410;2022-08-20T02:18:37;20.23;;;12.85;;
60225;SDS011;46090;48.436;11.410;2022-08-20T02:21:08;22.67;;;13.65;;
60225;SDS011;46090;48.436;11.410;2022-08-20T02:23:45;22.95;;;12.73;;
60225;SDS011;46090;48.436;11.410;2022-08-20T02:26:20;20.23;;;13.10;;
60225;SDS011;46090;48.436;11.410;2022-08-20T02:28:49;19.02;;;12.43;;
60225;SDS011;46090;48.436;11.410;2022-08-20T02:31:19;21.67;;;12.73;;
60225;SDS011;46090;48.436;11.410;2022-08-20T02:33:53;20.63;;;13.50;;
60225;SDS011;46090;48.436;11.410;2022-08-20T02:36:44;22.73;;;13.52;;
60225;SDS011;46090;48.436;11.410;2022-08-20T02:39:14;20.00;;;12.88;;
60225;SDS011;46090;48.436;11.410;2022-08-20T02:41:44;22.90;;;13.23;;
60225;SDS011;46090;48.436;11.410;2022-08-20T02:44:13;20.92;;;13.38;;
60225;SDS011;46090;48.436;11.410;2022-08-20T02:46:41;19.75;;;12.75;;
60225;SDS011;46090;48.436;11.410;2022-08-20T02:49:09;19.40;;;13.38;;
60225;SDS011;46090;48.436;11.410;2022-08-20T02:51:38;20.30;;;12.23;;
60225;SDS011;46090;48.436;11.410;2022-08-20T02:54:06;19.83;;;12.75;;
60225;SDS011;46090;48.436;11.410;2022-08-20T02:56:33;20.23;;;12.52;;
60225;SDS011;46090;48.436;11.410;2022-08-20T02:59:01;19.27;;;12.15;;
60225;SDS011;46090;48.436;11.410;2022-08-20T03:01:30;22.10;;;13.30;;
60225;SDS011;46090;48.436;11.410;2022-08-20T03:03:58;20.20;;;12.57;;
60225;SDS011;46090;48.436;11.410;2022-08-20T03:06:26;20.55;;;12.43;;
60225;SDS011;46090;48.436;11.410;2022-08-20T03:08:53;21.15;;;12.63;;
60225;SDS011;46090;48.436;11.410;2022-08-20T03:11:20;21.38;;;12.80;;
60225;SDS011;46090;48.436;11.410;2022-08-20T03:13:49;19.73;;;12.63;;
60225;SDS011;46090;48.436;11.410;2022-08-20T03:16:18;21.95;;;13.00;;
60225;SDS011;46090;48.436;11.410;2022-08-20T03:18:46;21.58;;;11.98;;
60225;SDS011;46090;48.436;11.410;2022-08-20T03:21:20;26.45;;;13.55;;
60225;SDS011;46090;48.436;11.410;2022-08-20T03:23:48;20.67;;;12.63;;
60225;SDS011;46090;48.436;11.410;2022-08-20T03:26:15;23.17;;;11.35;;
60225;SDS011;46090;48.436;11.410;2022-08-20T03:28:43;20.02;;;11.75;;
60225;SDS011;46090;48.436;11.410;2022-08-20T03:31:14;22.42;;;12.75;;
60225;SDS011;46090;48.436;11.410;2022-08-20T03:33:42;19.75;;;13.00;;
60225;SDS011;46090;48.436;11.410;2022-08-20T03:36:21;21.65;;;13.02;;
60225;SDS011;46090;48.436;11.410;2022-08-20T03:38:55;21.08;;;12.43;;
60225;SDS011;46090;48.436;11.410;2022-08-20T03:41:25;17.77;;;11.55;;
60225;SDS011;46090;48.436;11.410;2022-08-20T03:43:52;18.73;;;12.38;;
60225;SDS011;46090;48.436;11.410;2022-08-20T03:46:21;21.45;;;11.65;;
60225;SDS011;46090;48.436;11.410;2022-08-20T03:48:50;24.27;;;12.73;;
60225;SDS011;46090;48.436;11.410;2022-08-20T03:51:27;19.63;;;12.65;;
60225;SDS011;46090;48.436;11.410;2022-08-20T03:53:57;20.75;;;12.77;;
60225;SDS011;46090;48.436;11.410;2022-08-20T03:56:27;19.38;;;11.30;;
60225;SDS011;46090;48.436;11.410;2022-08-20T03:58:58;19.48;;;11.80;;
60225;SDS011;46090;48.436;11.410;2022-08-20T04:01:28;22.17;;;11.80;;
60225;SDS011;46090;48.436;11.410;2022-08-20T04:04:14;20.00;;;12.02;;
60225;SDS011;46090;48.436;11.410;2022-08-20T04:06:42;19.45;;;12.55;;
60225;SDS011;46090;48.436;11.410;2022-08-20T04:09:16;20.42;;;12.32;;
60225;SDS011;46090;48.436;11.410;2022-08-20T04:11:44;20.35;;;12.40;;
60225;SDS011;46090;48.436;11.410;2022-08-20T04:14:14;22.55;;;11.85;;
60225;SDS011;46090;48.436;11.410;2022-08-20T04:16:46;19.00;;;12.23;;
60225;SDS011;46090;48.436;11.410;2022-08-20T04:19:17;20.67;;;12.48;;
60225;SDS011;46090;48.436;11.410;2022-08-20T04:21:46;16.40;;;11.10;;
60225;SDS011;46090;48.436;11.410;2022-08-20T04:24:17;18.33;;;12.07;;
60225;SDS011;46090;48.436;11.410;2022-08-20T04:26:57;20.88;;;11.60;;
60225;SDS011;46090;48.436;11.410;2022-08-20T04:29:28;18.73;;;11.25;;
60225;SDS011;46090;48.436;11.410;2022-08-20T04:32:00;17.52;;;11.40;;
60225;SDS011;46090;48.436;11.410;2022-08-20T04:34:32;17.67;;;11.63;;
60225;SDS011;46090;48.436;11.410;2022-08-20T04:37:02;20.17;;;11.45;;
60225;SDS011;46090;48.436;11.410;2022-08-20T04:39:31;18.45;;;11.43;;
60225;SDS011;46090;48.436;11.410;2022-08-20T04:42:02;20.55;;;11.75;;
60225;SDS011;46090;48.436;11.410;2022-08-20T04:44:29;22.95;;;12.00;;
60225;SDS011;46090;48.436;11.410;2022-08-20T04:46:57;17.35;;;10.70;;
60225;SDS011;46090;48.436;11.410;2022-08-20T04:49:24;19.02;;;11.57;;
60225;SDS011;46090;48.436;11.410;2022-08-20T04:51:53;18.92;;;11.48;;
60225;SDS011;46090;48.436;11.410;2022-08-20T04:54:20;17.38;;;11.25;;
60225;SDS011;46090;48.436;11.410;2022-08-20T04:56:48;19.65;;;11.55;;
60225;SDS011;46090;48.436;11.410;2022-08-20T04:59:16;17.50;;;11.02;;
60225;SDS011;46090;48.436;11.410;2022-08-20T05:01:45;19.75;;;10.95;;
60225;SDS011;46090;48.436;11.410;2022-08-20T05:04:14;17.40;;;11.23;;
60225;SDS011;46090;48.436;11.410;2022-08-20T05:06:41;19.23;;;10.73;;
60225;SDS011;46090;48.436;11.410;2022-08-20T05:09:10;16.10;;;10.18;;
60225;SDS011;46090;48.436;11.410;2022-08-20T05:11:37;15.95;;;10.10;;
60225;SDS011;46090;48.436;11.410;2022-08-20T05:14:05;15.85;;;10.45;;
60225;SDS011;46090;48.436;11.410;2022-08-20T05:16:38;19.20;;;10.75;;
60225;SDS011;46090;48.436;11.410;2022-08-20T05:19:09;17.35;;;10.55;;
60225;SDS011;46090;48.436;11.410;2022-08-20T05:21:37;16.13;;;9.18;;
60225;SDS011;46090;48.436;11.410;2022-08-20T05:24:04;15.77;;;10.48;;
60225;SDS011;46090;48.436;11.410;2022-08-20T05:26:32;18.13;;;10.35;;
60225;SDS011;46090;48.436;11.410;2022-08-20T05:29:01;20.70;;;10.90;;
60225;SDS011;46090;48.436;11.410;2022-08-20T05:31:31;16.38;;;10.13;;
60225;SDS011;46090;48.436;11.410;2022-08-20T05:34:04;15.52;;;9.88;;
60225;SDS011;46090;48.436;11.410;2022-08-20T05:36:38;15.68;;;9.88;;
60225;SDS011;46090;48.436;11.410;2022-08-20T05:39:07;15.43;;;9.55;;
60225;SDS011;46090;48.436;11.410;2022-08-20T05:41:35;17.05;;;9.38;;
60225;SDS011;46090;48.436;11.410;2022-08-20T05:44:03;16.58;;;9.80;;
60225;SDS011;46090;48.436;11.410;2022-08-20T05:46:35;16.60;;;9.95;;
60225;SDS011;46090;48.436;11.410;2022-08-20T05:49:06;14.52;;;9.32;;
60225;SDS011;46090;48.436;11.410;2022-08-20T05:51:34;16.10;;;10.18;;
60225;SDS011;46090;48.436;11.410;2022-08-20T05:54:03;13.30;;;9.02;;
60225;SDS011;46090;48.436;11.410;2022-08-20T05:56:31;14.57;;;8.52;;
60225;SDS011;46090;48.436;11.410;2022-08-20T05:59:00;15.50;;;8.90;;
60225;SDS011;46090;48.436;11.410;2022-08-20T06:04:26;15.07;;;9.48;;
60225;SDS011;46090;48.436;11.410;2022-08-20T06:06:57;17.33;;;9.05;;
60225;SDS011;46090;48.436;11.410;2022-08-20T06:09:29;15.10;;;9.18;;
60225;SDS011;46090;48.436;11.410;2022-08-20T06:12:02;14.90;;;8.73;;
60225;SDS011;46090;48.436;11.410;2022-08-20T06:14:32;16.83;;;9.00;;
60225;SDS011;46090;48.436;11.410;2022-08-20T06:17:10;15.57;;;9.40;;
60225;SDS011;46090;48.436;11.410;2022-08-20T06:19:43;13.48;;;8.25;;
60225;SDS011;46090;48.436;11.410;2022-08-20T06:22:13;15.57;;;8.38;;
60225;SDS011;46090;48.436;11.410;2022-08-20T06:24:50;13.82;;;8.50;;
60225;SDS011;46090;48.436;11.410;2022-08-20T06:27:19;15.00;;;8.82;;
60225;SDS011;46090;48.436;11.410;2022-08-20T06:29:49;16.27;;;8.63;;
60225;SDS011;46090;48.436;11.410;2022-08-20T06:32:24;14.55;;;8.98;;
60225;SDS011;46090;48.436;11.410;2022-08-20T06:35:00;15.98;;;8.45;;
60225;SDS011;46090;48.436;11.410;2022-08-20T06:37:34;15.95;;;8.95;;
60225;SDS011;46090;48.436;11.410;2022-08-20T06:40:03;13.52;;;8.43;;
60225;SDS011;46090;48.436;11.410;2022-08-20T06:42:36;15.63;;;7.90;;
60225;SDS011;46090;48.436;11.410;2022-08-20T06:45:17;11.98;;;7.97;;
60225;SDS011;46090;48.436;11.410;2022-08-20T06:47:47;13.15;;;7.68;;
60225;SDS011;46090;48.436;11.410;2022-08-20T06:50:16;12.48;;;7.53;;
60225;SDS011;46090;48.436;11.410;2022-08-20T06:52:46;14.45;;;7.50;;
60225;SDS011;46090;48.436;11.410;2022-08-20T06:55:28;11.82;;;7.25;;
60225;SDS011;46090;48.436;11.410;2022-08-20T06:57:57;12.43;;;7.30;;
60225;SDS011;46090;48.436;11.410;2022-08-20T07:00:29;12.80;;;6.80;;
60225;SDS011;46090;48.436;11.410;2022-08-20T07:02:59;12.57;;;7.50;;
60225;SDS011;46090;48.436;11.410;2022-08-20T07:05:31;13.75;;;7.10;;
60225;SDS011;46090;48.436;11.410;2022-08-20T07:08:03;14.95;;;8.52;;
60225;SDS011;46090;48.436;11.410;2022-08-20T07:10:32;13.75;;;7.40;;
60225;SDS011;46090;48.436;11.410;2022-08-20T07:13:00;16.85;;;6.78;;
60225;SDS011;46090;48.436;11.410;2022-08-20T07:15:27;14.27;;;7.65;;
60225;SDS011;46090;48.436;11.410;2022-08-20T07:17:55;12.63;;;7.60;;
60225;SDS011;46090;48.436;11.410;2022-08-20T07:20:28;11.13;;;6.90;;
60225;SDS011;46090;48.436;11.410;2022-08-20T07:22:57;11.57;;;7.05;;
60225;SDS011;46090;48.436;11.410;2022-08-20T07:25:24;10.85;;;6.85;;
60225;SDS011;46090;48.436;11.410;2022-08-20T07:27:51;12.82;;;6.97;;
60225;SDS011;46090;48.436;11.410;2022-08-20T07:30:23;10.52;;;6.55;;
60225;SDS011;46090;48.436;11.410;2022-08-20T07:33:24;10.55;;;6.40;;
60225;SDS011;46090;48.436;11.410;2022-08-20T07:35:54;11.68;;;6.38;;
60225;SDS011;46090;48.436;11.410;2022-08-20T07:38:22;11.27;;;6.95;;
60225;SDS011;46090;48.436;11.410;2022-08-20T07:40:50;13.45;;;6.55;;
60225;SDS011;46090;48.436;11.410;2022-08-20T07:43:22;11.20;;;6.15;;
60225;SDS011;46090;48.436;11.410;2022-08-20T07:45:51;10.25;;;6.22;;
60225;SDS011;46090;48.436;11.410;2022-08-20T07:48:21;10.80;;;6.40;;
60225;SDS011;46090;48.436;11.410;2022-08-20T07:51:01;16.35;;;6.60;;
60225;SDS011;46090;48.436;11.410;2022-08-20T07:53:32;10.30;;;6.05;;
60225;SDS011;46090;48.436;11.410;2022-08-20T07:56:07;10.38;;;5.90;;
60225;SDS011;46090;48.436;11.410;2022-08-20T07:58:38;10.23;;;6.05;;
60225;SDS011;46090;48.436;11.410;2022-08-20T08:01:08;10.48;;;6.32;;
60225;SDS011;46090;48.436;11.410;2022-08-20T08:03:38;11.43;;;6.30;;
60225;SDS011;46090;48.436;11.410;2022-08-20T08:06:18;11.93;;;6.25;;
60225;SDS011;46090;48.436;11.410;2022-08-20T08:09:03;16.48;;;6.32;;
60225;SDS011;46090;48.436;11.410;2022-08-20T08:11:37;12.68;;;5.95;;
60225;SDS011;46090;48.436;11.410;2022-08-20T08:14:18;10.30;;;5.88;;
60225;SDS011;46090;48.436;11.410;2022-08-20T08:16:51;10.60;;;5.45;;
60225;SDS011;46090;48.436;11.410;2022-08-20T08:19:21;10.38;;;5.72;;
60225;SDS011;46090;48.436;11.410;2022-08-20T08:21:51;10.40;;;6.10;;
60225;SDS011;46090;48.436;11.410;2022-08-20T08:24:18;9.88;;;5.63;;
60225;SDS011;46090;48.436;11.410;2022-08-20T08:26:50;10.38;;;6.03;;
60225;SDS011;46090;48.436;11.410;2022-08-20T08:29:18;10.55;;;6.28;;
60225;SDS011;46090;48.436;11.410;2022-08-20T08:31:46;12.20;;;5.93;;
60225;SDS011;46090;48.436;11.410;2022-08-20T08:34:13;9.52;;;5.20;;
60225;SDS011;46090;48.436;11.410;2022-08-20T08:36:41;10.90;;;6.15;;
60225;SDS011;46090;48.436;11.410;2022-08-20T08:39:10;10.95;;;5.57;;
60225;SDS011;46090;48.436;11.410;2022-08-20T08:41:41;11.18;;;6.18;;
60225;SDS011;46090;48.436;11.410;2022-08-20T08:44:23;11.13;;;5.97;;
60225;SDS011;46090;48.436;11.410;2022-08-20T08:46:53;10.43;;;6.30;;
60225;SDS011;46090;48.436;11.410;2022-08-20T08:49:30;9.90;;;5.70;;
60225;SDS011;46090;48.436;11.410;2022-08-20T08:52:10;11.77;;;6.25;;
60225;SDS011;46090;48.436;11.410;2022-08-20T08:54:42;12.60;;;6.03;;
60225;SDS011;46090;48.436;11.410;2022-08-20T08:57:13;9.13;;;5.88;;
60225;SDS011;46090;48.436;11.410;2022-08-20T08:59:43;10.10;;;5.43;;
60225;SDS011;46090;48.436;11.410;2022-08-20T09:02:29;11.63;;;5.95;;
60225;SDS011;46090;48.436;11.410;2022-08-20T09:04:59;16.83;;;6.28;;
60225;SDS011;46090;48.436;11.410;2022-08-20T09:07:30;10.75;;;6.38;;
60225;SDS011;46090;48.436;11.410;2022-08-20T09:09:58;9.88;;;5.85;;
60225;SDS011;46090;48.436;11.410;2022-08-20T09:12:27;12.68;;;6.32;;
60225;SDS011;46090;48.436;11.410;2022-08-20T09:14:54;12.82;;;6.70;;
60225;SDS011;46090;48.436;11.410;2022-08-20T09:17:23;11.68;;;6.38;;
60225;SDS011;46090;48.436;11.410;2022-08-20T09:19:51;9.40;;;5.72;;
60225;SDS011;46090;48.436;11.410;2022-08-20T09:22:20;9.38;;;6.03;;
60225;SDS011;46090;48.436;11.410;2022-08-20T09:24:48;9.20;;;6.03;;
60225;SDS011;46090;48.436;11.410;2022-08-20T09:27:16;9.48;;;5.72;;
60225;SDS011;46090;48.436;11.410;2022-08-20T09:29:44;10.98;;;6.10;;
60225;SDS011;46090;48.436;11.410;2022-08-20T09:32:17;9.48;;;5.28;;
60225;SDS011;46090;48.436;11.410;2022-08-20T09:34:48;8.65;;;5.40;;
60225;SDS011;46090;48.436;11.410;2022-08-20T09:37:25;10.63;;;5.90;;
60225;SDS011;46090;48.436;11.410;2022-08-20T09:39:58;11.35;;;6.35;;
60225;SDS011;46090;48.436;11.410;2022-08-20T09:42:27;10.63;;;5.72;;
60225;SDS011;46090;48.436;11.410;2022-08-20T09:44:57;10.75;;;6.75;;
60225;SDS011;46090;48.436;11.410;2022-08-20T09:47:24;9.35;;;5.80;;
60225;SDS011;46090;48.436;11.410;2022-08-20T09:49:52;9.38;;;5.65;;
60225;SDS011;46090;48.436;11.410;2022-08-20T09:52:24;9.82;;;6.43;;
60225;SDS011;46090;48.436;11.410;2022-08-20T09:54:56;10.57;;;6.15;;
60225;SDS011;46090;48.436;11.410;2022-08-20T09:57:24;10.73;;;6.28;;
60225;SDS011;46090;48.436;11.410;2022-08-20T09:59:57;11.18;;;6.85;;
60225;SDS011;46090;48.436;11.410;2022-08-20T10:02:27;9.65;;;5.85;;
60225;SDS011;46090;48.436;11.410;2022-08-20T10:04:55;12.65;;;6.93;;
60225;SDS011;46090;48.436;11.410;2022-08-20T10:07:25;10.95;;;6.28;;
60225;SDS011;46090;48.436;11.410;2022-08-20T10:09:53;11.20;;;5.93;;
60225;SDS011;46090;48.436;11.410;2022-08-20T10:12:21;10.52;;;6.20;;
60225;SDS011;46090;48.436;11.410;2022-08-20T10:14:52;12.60;;;5.63;;
60225;SDS011;46090;48.436;11.410;2022-08-20T10:17:21;10.35;;;6.25;;
60225;SDS011;46090;48.436;11.410;2022-08-20T10:19:48;12.10;;;6.60;;
60225;SDS011;46090;48.436;11.410;2022-08-20T10:22:16;12.00;;;6.50;;
60225;SDS011;46090;48.436;11.410;2022-08-20T10:24:44;11.20;;;6.57;;
60225;SDS011;46090;48.436;11.410;2022-08-20T10:27:11;11.25;;;5.53;;
60225;SDS011;46090;48.436;11.410;2022-08-20T10:29:39;12.02;;;5.82;;
60225;SDS011;46090;48.436;11.410;2022-08-20T10:32:13;10.60;;;6.63;;
60225;SDS011;46090;48.436;11.410;2022-08-20T10:34:42;11.07;;;6.53;;
60225;SDS011;46090;48.436;11.410;2022-08-20T10:37:18;12.18;;;7.07;;
60225;SDS011;46090;48.436;11.410;2022-08-20T10:39:50;10.13;;;6.75;;
60225;SDS011;46090;48.436;11.410;2022-08-20T10:42:18;12.38;;;6.57;;
60225;SDS011;46090;48.436;11.410;2022-08-20T10:44:45;11.65;;;7.20;;
60225;SDS011;46090;48.436;11.410;2022-08-20T10:47:31;10.50;;;6.88;;
60225;SDS011;46090;48.436;11.410;2022-08-20T10:50:00;10.18;;;7.18;;
60225;SDS011;46090;48.436;11.410;2022-08-20T10:52:28;11.50;;;6.50;;
60225;SDS011;46090;48.436;11.410;2022-08-20T10:54:56;12.77;;;7.07;;
60225;SDS011;46090;48.436;11.410;2022-08-20T10:57:25;10.63;;;7.13;;
60225;SDS011;46090;48.436;11.410;2022-08-20T10:59:55;12.77;;;7.25;;
60225;SDS011;46090;48.436;11.410;2022-08-20T11:02:23;9.77;;;6.18;;
60225;SDS011;46090;48.436;11.410;2022-08-20T11:04:52;11.07;;;7.07;;
60225;SDS011;46090;48.436;11.410;2022-08-20T11:07:27;11.85;;;7.03;;
60225;SDS011;46090;48.436;11.410;2022-08-20T11:10:18;9.27;;;6.25;;
60225;SDS011;46090;48.436;11.410;2022-08-20T11:12:47;10.48;;;6.75;;
60225;SDS011;46090;48.436;11.410;2022-08-20T11:15:14;12.10;;;7.05;;
60225;SDS011;46090;48.436;11.410;2022-08-20T11:17:43;11.30;;;7.10;;
60225;SDS011;46090;48.436;11.410;2022-08-20T11:20:12;11.60;;;7.10;;
60225;SDS011;46090;48.436;11.410;2022-08-20T11:22:41;14.07;;;7.28;;
60225;SDS011;46090;48.436;11.410;2022-08-20T11:25:08;11.15;;;6.55;;
60225;SDS011;46090;48.436;11.410;2022-08-20T11:27:39;11.73;;;7.03;;
60225;SDS011;46090;48.436;11.410;2022-08-20T11:30:11;13.32;;;7.68;;
60225;SDS011;46090;48.436;11.410;2022-08-20T11:32:40;13.52;;;7.13;;
60225;SDS011;46090;48.436;11.410;2022-08-20T11:35:07;10.45;;;6.57;;
60225;SDS011;46090;48.436;11.410;2022-08-20T11:37:55;11.25;;;6.70;;
60225;SDS011;46090;48.436;11.410;2022-08-20T11:40:24;11.40;;;7.07;;
60225;SDS011;46090;48.436;11.410;2022-08-20T11:42:53;11.88;;;7.63;;
60225;SDS011;46090;48.436;11.410;2022-08-20T11:45:42;10.95;;;6.95;;
60225;SDS011;46090;48.436;11.410;2022-08-20T11:48:10;10.60;;;6.78;;
60225;SDS011;46090;48.436;11.410;2022-08-20T11:50:36;11.00;;;7.30;;
60225;SDS011;46090;48.436;11.410;2022-08-20T11:53:03;12.60;;;7.80;;
60225;SDS011;46090;48.436;11.410;2022-08-20T11:55:33;11.23;;;7.45;;
60225;SDS011;46090;48.436;11.410;2022-08-20T11:58:02;12.20;;;7.15;;
60225;SDS011;46090;48.436;11.410;2022-08-20T12:00:31;11.15;;;6.55;;
60225;SDS011;46090;48.436;11.410;2022-08-20T12:03:03;9.77;;;6.60;;
60225;SDS011;46090;48.436;11.410;2022-08-20T12:05:38;10.63;;;6.90;;
60225;SDS011;46090;48.436;11.410;2022-08-20T12:08:11;11.85;;;7.03;;
60225;SDS011;46090;48.436;11.410;2022-08-20T12:10:54;9.30;;;6.05;;
60225;SDS011;46090;48.436;11.410;2022-08-20T12:13:24;10.77;;;7.00;;
60225;SDS011;46090;48.436;11.410;2022-08-20T12:16:13;12.00;;;6.97;;
60225;SDS011;46090;48.436;11.410;2022-08-20T12:18:41;12.45;;;7.22;;
60225;SDS011;46090;48.436;11.410;2022-08-20T12:21:09;10.88;;;7.20;;
60225;SDS011;46090;48.436;11.410;2022-08-20T12:23:37;10.65;;;6.97;;
60225;SDS011;46090;48.436;11.410;2022-08-20T12:26:04;9.45;;;6.53;;
60225;SDS011;46090;48.436;11.410;2022-08-20T12:28:34;10.32;;;6.78;;
60225;SDS011;46090;48.436;11.410;2022-08-20T12:31:03;10.50;;;6.85;;
60225;SDS011;46090;48.436;11.410;2022-08-20T12:33:32;13.07;;;6.80;;
60225;SDS011;46090;48.436;11.410;2022-08-20T12:35:59;12.18;;;7.45;;
60225;SDS011;46090;48.436;11.410;2022-08-20T12:38:27;17.50;;;7.22;;
60225;SDS011;46090;48.436;11.410;2022-08-20T12:40:55;11.07;;;7.78;;
60225;SDS011;46090;48.436;11.410;2022-08-20T12:43:24;12.13;;;7.20;;
60225;SDS011;46090;48.436;11.410;2022-08-20T12:45:51;10.35;;;6.72;;
60225;SDS011;46090;48.436;11.410;2022-08-20T12:48:21;12.30;;;7.13;;
60225;SDS011;46090;48.436;11.410;2022-08-20T12:50:49;11.05;;;7.43;;
60225;SDS011;46090;48.436;11.410;2022-08-20T12:53:16;11.30;;;6.70;;
60225;SDS011;46090;48.436;11.410;2022-08-20T12:55:42;10.75;;;6.45;;
60225;SDS011;46090;48.436;11.410;2022-08-20T12:58:10;11.52;;;7.03;;
60225;SDS011;46090;48.436;11.410;2022-08-20T13:00:42;10.50;;;6.82;;
60225;SDS011;46090;48.436;11.410;2022-08-20T13:03:17;11.30;;;7.15;;
60225;SDS011;46090;48.436;11.410;2022-08-20T13:05:49;12.40;;;7.22;;
60225;SDS011;46090;48.436;11.410;2022-08-20T13:08:17;10.00;;;6.72;;
60225;SDS011;46090;48.436;11.410;2022-08-20T13:10:46;11.98;;;7.05;;
60225;SDS011;46090;48.436;11.410;2022-08-20T13:13:16;12.02;;;7.07;;
60225;SDS011;46090;48.436;11.410;2022-08-20T13:15:49;11.80;;;7.40;;
60225;SDS011;46090;48.436;11.410;2022-08-20T13:18:17;9.48;;;6.57;;
60225;SDS011;46090;48.436;11.410;2022-08-20T13:20:44;10.10;;;6.07;;
60225;SDS011;46090;48.436;11.410;2022-08-20T13:23:12;10.57;;;6.80;;
60225;SDS011;46090;48.436;11.410;2022-08-20T13:25:40;13.25;;;7.35;;
60225;SDS011;46090;48.436;11.410;2022-08-20T13:28:08;10.00;;;6.07;;
60225;SDS011;46090;48.436;11.410;2022-08-20T13:30:38;11.30;;;5.85;;
60225;SDS011;46090;48.436;11.410;2022-08-20T13:33:06;9.75;;;5.47;;
60225;SDS011;46090;48.436;11.410;2022-08-20T13:35:33;8.70;;;4.90;;
60225;SDS011;46090;48.436;11.410;2022-08-20T13:38:02;7.93;;;4.90;;
60225;SDS011;46090;48.436;11.410;2022-08-20T13:40:30;10.57;;;5.75;;
60225;SDS011;46090;48.436;11.410;2022-08-20T13:42:58;10.70;;;5.60;;
60225;SDS011;46090;48.436;11.410;2022-08-20T13:45:34;9.65;;;4.70;;
60225;SDS011;46090;48.436;11.410;2022-08-20T13:48:01;7.65;;;4.90;;
60225;SDS011;46090;48.436;11.410;2022-08-20T13:50:29;10.30;;;5.47;;
60225;SDS011;46090;48.436;11.410;2022-08-20T13:52:57;9.30;;;5.32;;
60225;SDS011;46090;48.436;11.410;2022-08-20T13:55:25;8.70;;;5.20;;
60225;SDS011;46090;48.436;11.410;2022-08-20T13:57:55;9.00;;;5.28;;
60225;SDS011;46090;48.436;11.410;2022-08-20T14:00:24;8.38;;;5.45;;
60225;SDS011;46090;48.436;11.410;2022-08-20T14:03:00;9.80;;;5.32;;
60225;SDS011;46090;48.436;11.410;2022-08-20T14:05:31;7.72;;;5.25;;
60225;SDS011;46090;48.436;11.410;2022-08-20T14:08:06;9.10;;;4.85;;
60225;SDS011;46090;48.436;11.410;2022-08-20T14:10:37;9.70;;;6.45;;
60225;SDS011;46090;48.436;11.410;2022-08-20T14:13:11;11.07;;;6.68;;
60225;SDS011;46090;48.436;11.410;2022-08-20T14:15:43;9.63;;;5.68;;
60225;SDS011;46090;48.436;11.410;2022-08-20T14:18:11;9.40;;;6.22;;
60225;SDS011;46090;48.436;11.410;2022-08-20T14:20:41;10.15;;;6.50;;
60225;SDS011;46090;48.436;11.410;2022-08-20T14:23:13;18.90;;;2.45;;
60225;SDS011;46090;48.436;11.410;2022-08-20T14:25:44;15.88;;;2.58;;
60225;SDS011;46090;48.436;11.410;2022-08-20T14:28:15;13.05;;;4.03;;
60225;SDS011;46090;48.436;11.410;2022-08-20T14:30:49;6.30;;;3.22;;
60225;SDS011;46090;48.436;11.410;2022-08-20T14:33:22;8.55;;;3.38;;
60225;SDS011;46090;48.436;11.410;2022-08-20T14:35:52;7.38;;;3.88;;
60225;SDS011;46090;48.436;11.410;2022-08-20T14:38:22;5.95;;;3.25;;
60225;SDS011;46090;48.436;11.410;2022-08-20T14:40:50;5.57;;;2.75;;
60225;SDS011;46090;48.436;11.410;2022-08-20T14:43:19;4.72;;;1.35;;
60225;SDS011;46090;48.436;11.410;2022-08-20T14:45:48;2.63;;;0.82;;
60225;SDS011;46090;48.436;11.410;2022-08-20T14:48:17;3.30;;;1.08;;
60225;SDS011;46090;48.436;11.410;2022-08-20T14:50:44;4.05;;;1.02;;